createdAt,value
2023-04-18T00:00:45.050Z,742.95
2023-04-18T00:05:51.178Z,741.95
2023-04-18T00:10:54.085Z,741.58
2023-04-18T00:15:56.767Z,737.17
2023-04-18T00:20:59.396Z,738.80
2023-04-18T00:26:02.841Z,737.92
2023-04-18T00:31:04.898Z,738.55
2023-04-18T00:36:08.306Z,735.40
2023-04-18T00:41:10.861Z,734.85
2023-04-18T00:46:12.953Z,734.38
2023-04-18T00:51:19.926Z,732.95
2023-04-18T00:56:23.827Z,734.75
2023-04-18T01:01:29.938Z,734.17
2023-04-18T01:06:35.598Z,738.50
2023-04-18T01:11:40.462Z,731.95
2023-04-18T01:16:48.798Z,730.87
2023-04-18T01:21:54.618Z,731.27
2023-04-18T01:26:57.229Z,729.17
2023-04-18T01:31:59.242Z,727.88
2023-04-18T01:37:01.163Z,725.55
2023-04-18T01:42:03.094Z,726.10
2023-04-18T01:47:04.905Z,729.00
2023-04-18T01:52:08.326Z,725.30
2023-04-18T01:57:10.380Z,729.38
2023-04-18T02:02:14.139Z,723.88
2023-04-18T02:07:17.187Z,724.33
2023-04-18T02:12:37.732Z,723.58
2023-04-18T02:17:46.121Z,719.85
2023-04-18T02:22:48.043Z,720.75
2023-04-18T02:27:50.070Z,722.90
2023-04-18T02:32:58.791Z,716.80
2023-04-18T02:38:00.704Z,717.53
2023-04-18T02:43:04.670Z,723.55
2023-04-18T02:48:08.260Z,717.72
2023-04-18T02:53:10.478Z,717.35
2023-04-18T02:58:33.645Z,717.85
2023-04-18T03:03:56.729Z,715.65
2023-04-18T03:09:08.851Z,718.00
2023-04-18T03:14:16.039Z,719.33
2023-04-18T03:19:25.050Z,711.50
2023-04-18T03:24:34.249Z,716.30
2023-04-18T03:29:38.576Z,716.60
2023-04-18T03:34:43.950Z,715.13
2023-04-18T03:40:01.452Z,713.30
2023-04-18T03:45:08.472Z,710.07
2023-04-18T03:50:12.018Z,713.63
2023-04-18T03:55:16.192Z,721.07
2023-04-18T04:00:20.800Z,720.43
2023-04-18T04:05:34.543Z,710.67
2023-04-18T04:10:36.438Z,714.77
2023-04-18T04:15:39.565Z,711.22
2023-04-18T04:20:46.014Z,713.50
2023-04-18T04:26:01.328Z,716.03
2023-04-18T04:31:18.801Z,725.35
2023-04-18T04:36:23.054Z,714.57
2023-04-18T04:41:27.806Z,725.80
2023-04-18T04:46:39.452Z,714.47
2023-04-18T04:51:50.746Z,710.97
2023-04-18T04:56:56.415Z,719.10
2023-04-18T05:01:59.049Z,721.23
2023-04-18T05:07:02.050Z,719.80
2023-04-18T05:12:07.963Z,728.37
2023-04-18T05:17:19.991Z,718.53
2023-04-18T05:22:23.379Z,715.13
2023-04-18T05:27:28.929Z,715.60
2023-04-18T05:32:32.215Z,725.05
2023-04-18T05:37:34.204Z,721.23
2023-04-18T05:42:36.497Z,726.57
2023-04-18T05:47:44.266Z,728.93
2023-04-18T05:52:46.868Z,731.90
2023-04-18T05:57:49.006Z,739.73
2023-04-18T06:03:02.066Z,742.83
2023-04-18T06:08:24.386Z,717.83
2023-04-18T06:13:26.281Z,727.95
2023-04-18T06:18:28.110Z,728.65
2023-04-18T06:23:29.899Z,732.55
2023-04-18T06:28:31.748Z,728.83
2023-04-18T06:33:34.062Z,727.78
2023-04-18T06:38:36.713Z,729.47
2023-04-18T06:43:38.537Z,732.70
2023-04-18T06:49:03.938Z,724.23
2023-04-18T06:54:07.403Z,738.70
2023-04-18T06:59:09.902Z,732.47
2023-04-18T07:04:15.064Z,727.10
2023-04-18T07:09:17.565Z,739.87
2023-04-18T07:14:24.551Z,747.13
2023-04-18T07:19:26.431Z,757.53
2023-04-18T07:24:29.123Z,746.93
2023-04-18T07:29:31.470Z,770.17
2023-04-18T07:34:35.727Z,759.53
2023-04-18T07:39:37.529Z,736.53
2023-04-18T07:44:39.980Z,769.57
2023-04-18T07:49:45.130Z,762.47
2023-04-18T07:54:47.013Z,749.85
2023-04-18T07:59:49.257Z,750.03
2023-04-18T08:04:52.447Z,749.13
2023-04-18T08:09:54.501Z,749.60
2023-04-18T08:14:56.750Z,766.20
2023-04-18T08:19:58.794Z,760.90
2023-04-18T08:25:05.547Z,755.67
2023-04-18T08:30:19.226Z,762.22
2023-04-18T08:35:21.835Z,771.72
2023-04-18T08:40:24.495Z,766.17
2023-04-18T08:45:31.181Z,787.03
2023-04-18T08:50:34.097Z,779.33
2023-04-18T08:55:38.545Z,784.87
2023-04-18T09:00:40.679Z,757.85
2023-04-18T09:05:42.566Z,773.07
2023-04-18T09:10:46.816Z,761.88
2023-04-18T09:15:57.620Z,766.80
2023-04-18T09:21:19.058Z,766.40
2023-04-18T09:26:35.142Z,771.30
2023-04-18T09:31:57.292Z,777.13
2023-04-18T09:37:11.647Z,773.03
2023-04-18T09:42:14.201Z,781.80
2023-04-18T09:47:16.624Z,766.53
2023-04-18T09:52:19.959Z,763.90
2023-04-18T09:57:27.883Z,764.90
2023-04-18T10:02:41.774Z,771.90
2023-04-18T10:07:49.430Z,784.03
2023-04-18T10:18:05.280Z,774.22
2023-04-18T10:23:40.768Z,784.30
2023-04-18T10:29:04.247Z,767.00
2023-04-18T10:34:07.416Z,770.22
2023-04-18T10:39:23.494Z,773.45
2023-04-18T10:44:28.047Z,776.75
2023-04-18T10:49:33.563Z,776.08
2023-04-18T10:54:39.204Z,779.65
2023-04-18T10:59:43.966Z,779.10
2023-04-18T11:04:51.398Z,777.25
2023-04-18T11:09:57.459Z,780.97
2023-04-18T11:15:04.842Z,775.93
2023-04-18T11:20:11.126Z,780.15
2023-04-18T11:25:13.871Z,778.70
2023-04-18T11:30:18.544Z,773.70
2023-04-18T11:35:20.887Z,774.83
2023-04-18T11:40:22.840Z,771.17
2023-04-18T11:45:25.750Z,773.30
2023-04-18T11:50:27.736Z,767.15
2023-04-18T11:55:31.344Z,777.07
2023-04-18T12:00:35.434Z,766.67
2023-04-18T12:05:38.481Z,773.70
2023-04-18T12:10:51.814Z,772.83
2023-04-18T12:15:54.993Z,786.75
2023-04-18T12:21:02.344Z,787.57
2023-04-18T12:26:23.728Z,793.20
2023-04-18T12:31:25.766Z,798.90
2023-04-18T12:36:28.853Z,801.78
2023-04-18T12:41:32.297Z,842.73
2023-04-18T12:46:34.439Z,801.35
2023-04-18T12:51:36.279Z,804.72
2023-04-18T12:56:38.673Z,799.53
2023-04-18T13:01:41.041Z,804.47
2023-04-18T13:06:43.912Z,850.23
2023-04-18T13:11:47.739Z,834.87
2023-04-18T13:16:51.614Z,814.47
2023-04-18T13:21:53.460Z,814.05
2023-04-18T13:26:55.298Z,838.28
2023-04-18T13:32:06.209Z,858.03
2023-04-18T13:37:09.068Z,867.67
2023-04-18T13:42:10.943Z,847.35
2023-04-18T13:47:18.778Z,824.50
2023-04-18T13:52:20.987Z,822.47
2023-04-18T13:57:23.437Z,818.97
2023-04-18T14:02:26.755Z,837.83
2023-04-18T14:07:28.737Z,831.93
2023-04-18T14:12:31.350Z,838.00
2023-04-18T14:17:39.266Z,848.77
2023-04-18T14:22:52.369Z,864.17
2023-04-18T14:28:05.531Z,885.13
2023-04-18T14:33:13.578Z,880.43
2023-04-18T14:38:16.278Z,896.87
2023-04-18T14:43:19.139Z,848.35
2023-04-18T14:48:21.571Z,842.25
2023-04-18T14:53:29.609Z,833.60
2023-04-18T14:58:33.304Z,884.40
2023-04-18T15:03:41.122Z,874.63
2023-04-18T15:08:44.431Z,869.53
2023-04-18T15:13:47.585Z,878.33
2023-04-18T15:18:50.288Z,859.55
2023-04-18T15:23:52.237Z,847.42
2023-04-18T15:28:54.590Z,823.90
2023-04-18T15:33:57.956Z,815.53
2023-04-18T15:38:59.858Z,837.25
2023-04-18T15:44:02.729Z,811.05
2023-04-18T15:49:05.171Z,815.55
2023-04-18T15:54:09.957Z,818.95
2023-04-18T15:59:13.766Z,823.03
2023-04-18T16:04:16.755Z,832.55
2023-04-18T16:09:19.805Z,817.88
2023-04-18T16:14:21.603Z,815.17
2023-04-18T16:19:23.534Z,828.25
2023-04-18T16:24:25.718Z,839.70
2023-04-18T16:29:27.634Z,831.88
2023-04-18T16:34:29.526Z,848.95
2023-04-18T16:39:31.610Z,831.92
2023-04-18T16:44:34.946Z,834.55
2023-04-18T16:49:37.526Z,823.20
2023-04-18T16:54:41.064Z,817.45
2023-04-18T16:59:42.913Z,821.95
2023-04-18T17:04:44.777Z,820.00
2023-04-18T17:09:47.021Z,813.17
2023-04-18T17:14:48.878Z,813.92
2023-04-18T17:19:52.062Z,810.65
2023-04-18T17:25:00.031Z,813.17
2023-04-18T17:30:04.365Z,813.13
2023-04-18T17:35:14.787Z,815.13
2023-04-18T17:40:16.776Z,811.60
2023-04-18T17:45:20.508Z,804.63
2023-04-18T17:50:22.335Z,804.58
2023-04-18T17:55:34.008Z,801.70
2023-04-18T18:00:36.184Z,799.05
2023-04-18T18:05:37.997Z,803.20
2023-04-18T18:10:40.052Z,800.28
2023-04-18T18:15:42.066Z,798.30
2023-04-18T18:20:44.369Z,799.47
2023-04-18T18:25:46.475Z,802.67
2023-04-18T18:30:49.001Z,801.85
2023-04-18T18:35:51.045Z,796.67
2023-04-18T18:40:56.163Z,792.75
2023-04-18T18:45:59.139Z,795.35
2023-04-18T18:51:01.449Z,790.47
2023-04-18T18:56:07.564Z,797.75
2023-04-18T19:01:11.512Z,789.50
2023-04-18T19:06:14.832Z,791.05
2023-04-18T19:11:18.467Z,787.38
2023-04-18T19:16:20.428Z,782.00
2023-04-18T19:21:22.948Z,790.72
2023-04-18T19:26:24.920Z,788.88
2023-04-18T19:31:27.383Z,790.92
2023-04-18T19:36:30.838Z,778.75
2023-04-18T19:41:32.641Z,781.15
2023-04-18T19:46:35.721Z,772.25
2023-04-18T19:56:58.808Z,772.03
2023-04-18T20:02:04.097Z,772.97
2023-04-18T20:07:07.674Z,768.47
2023-04-18T20:12:09.569Z,772.80
2023-04-18T20:17:13.373Z,768.10
2023-04-18T20:22:21.445Z,774.78
2023-04-18T20:32:45.816Z,772.90
2023-04-18T20:37:50.233Z,768.17
2023-04-18T20:42:54.489Z,768.65
2023-04-18T20:48:01.441Z,766.90
2023-04-18T20:53:06.589Z,761.83
2023-04-18T20:58:08.405Z,763.10
2023-04-18T21:03:13.200Z,763.88
2023-04-18T21:08:15.586Z,760.40
2023-04-18T21:13:17.434Z,759.58
2023-04-18T21:18:19.482Z,761.63
2023-04-18T21:23:24.880Z,747.83
2023-04-18T21:28:26.668Z,757.08
2023-04-18T21:33:28.546Z,757.65
2023-04-18T21:38:32.999Z,762.63
2023-04-18T21:43:45.542Z,757.35
2023-04-18T21:48:54.696Z,760.38
2023-04-18T21:53:56.545Z,757.72
2023-04-18T21:59:16.777Z,758.95
2023-04-18T22:04:21.278Z,753.78
2023-04-18T22:09:23.230Z,751.33
2023-04-18T22:14:26.072Z,748.05
2023-04-18T22:19:29.442Z,753.72
2023-04-18T22:29:47.533Z,755.63
2023-04-18T22:34:49.767Z,761.30
2023-04-18T22:39:51.852Z,757.05
2023-04-18T22:44:53.692Z,755.63
2023-04-18T22:49:56.296Z,751.08
2023-04-18T22:54:58.110Z,753.15
2023-04-18T23:00:00.544Z,754.85
2023-04-18T23:05:02.546Z,757.97
2023-04-18T23:10:11.311Z,754.53
2023-04-18T23:15:14.108Z,760.17
2023-04-18T23:20:16.645Z,757.30
2023-04-18T23:25:19.518Z,755.53
2023-04-18T23:30:21.379Z,761.15
2023-04-18T23:35:23.627Z,758.25
2023-04-18T23:40:25.666Z,752.13
2023-04-18T23:45:37.422Z,750.20
2023-04-18T23:50:49.496Z,749.25
2023-04-18T23:55:57.066Z,749.47
